createdAt,value
2023-02-02T00:00:16.506Z,63.91
2023-02-02T00:03:18.794Z,63.82
2023-02-02T00:06:22.611Z,66.38
2023-02-02T00:09:28.945Z,66.25
2023-02-02T00:12:31.141Z,66.82
2023-02-02T00:15:33.387Z,65.77
2023-02-02T00:18:36.841Z,66.60
2023-02-02T00:21:38.997Z,67.21
2023-02-02T00:24:41.246Z,67.16
2023-02-02T00:27:43.428Z,67.30
2023-02-02T00:30:45.742Z,65.43
2023-02-02T00:33:49.625Z,68.41
2023-02-02T00:36:52.342Z,66.86
2023-02-02T00:39:54.583Z,66.31
2023-02-02T00:42:56.680Z,64.99
2023-02-02T00:45:58.996Z,63.40
2023-02-02T00:49:01.228Z,63.07
2023-02-02T00:52:03.568Z,61.82
2023-02-02T00:55:06.475Z,61.39
2023-02-02T00:58:08.635Z,62.82
2023-02-02T01:01:23.742Z,61.91
2023-02-02T01:04:26.039Z,60.93
2023-02-02T01:07:28.402Z,60.81
2023-02-02T01:10:34.031Z,62.39
2023-02-02T01:13:36.305Z,62.15
2023-02-02T01:16:38.463Z,62.21
2023-02-02T01:19:41.452Z,61.78
2023-02-02T01:22:43.622Z,61.13
2023-02-02T01:25:45.896Z,60.59
2023-02-02T01:28:48.530Z,60.92
2023-02-02T01:31:50.755Z,61.48
2023-02-02T01:34:53.025Z,60.42
2023-02-02T01:37:55.189Z,60.58
2023-02-02T01:40:58.362Z,60.19
2023-02-02T01:44:05.563Z,60.47
2023-02-02T01:47:07.906Z,61.13
2023-02-02T01:50:12.176Z,60.04
2023-02-02T01:53:14.399Z,60.81
2023-02-02T01:56:22.615Z,60.96
2023-02-02T01:59:25.348Z,59.47
2023-02-02T02:02:28.307Z,59.10
2023-02-02T02:05:33.631Z,59.19
2023-02-02T02:08:38.761Z,58.98
2023-02-02T02:11:40.980Z,58.44
2023-02-02T02:15:03.875Z,58.49
2023-02-02T02:18:06.186Z,59.04
2023-02-02T02:21:51.714Z,56.68
2023-02-02T02:25:43.885Z,55.08
2023-02-02T02:28:59.223Z,55.73
2023-02-02T02:32:27.506Z,55.04
2023-02-02T02:35:40.602Z,55.68
2023-02-02T02:38:50.287Z,54.71
2023-02-02T02:41:59.631Z,54.63
2023-02-02T02:45:03.304Z,54.87
2023-02-02T02:48:05.561Z,55.96
2023-02-02T02:51:09.786Z,56.11
2023-02-02T02:54:22.039Z,55.83
2023-02-02T02:57:52.576Z,56.05
2023-02-02T03:01:26.087Z,56.30
2023-02-02T03:04:56.407Z,54.80
2023-02-02T03:08:07.698Z,55.35
2023-02-02T03:11:11.515Z,55.41
2023-02-02T03:14:14.130Z,55.57
2023-02-02T03:17:16.536Z,55.44
2023-02-02T03:20:20.945Z,56.13
2023-02-02T03:23:23.617Z,56.33
2023-02-02T03:26:26.131Z,55.54
2023-02-02T03:29:28.538Z,56.08
2023-02-02T03:32:30.905Z,56.44
2023-02-02T03:35:33.257Z,56.05
2023-02-02T03:38:35.637Z,56.47
2023-02-02T03:41:39.187Z,56.32
2023-02-02T03:44:41.531Z,57.08
2023-02-02T03:47:44.106Z,56.80
2023-02-02T03:50:46.411Z,57.76
2023-02-02T03:53:48.656Z,57.10
2023-02-02T03:56:50.775Z,56.86
2023-02-02T03:59:53.000Z,57.48
2023-02-02T04:02:55.273Z,57.03
2023-02-02T04:05:57.644Z,58.05
2023-02-02T04:08:59.804Z,55.93
2023-02-02T04:12:02.013Z,57.20
2023-02-02T04:15:04.642Z,57.11
2023-02-02T04:18:06.868Z,57.52
2023-02-02T04:21:09.576Z,57.30
2023-02-02T04:24:12.692Z,56.81
2023-02-02T04:27:14.876Z,57.97
2023-02-02T04:30:17.556Z,57.95
2023-02-02T04:33:20.790Z,57.91
2023-02-02T04:36:23.089Z,57.52
2023-02-02T04:39:25.324Z,57.24
2023-02-02T04:42:27.534Z,56.63
2023-02-02T04:45:29.756Z,57.97
2023-02-02T04:48:32.106Z,57.72
2023-02-02T04:51:35.353Z,57.06
2023-02-02T04:54:37.578Z,56.87
2023-02-02T04:57:39.766Z,57.54
2023-02-02T05:00:42.024Z,57.32
2023-02-02T05:03:44.663Z,57.00
2023-02-02T05:06:46.825Z,57.22
2023-02-02T05:09:49.002Z,56.96
2023-02-02T05:12:55.663Z,56.31
2023-02-02T05:15:57.796Z,56.55
2023-02-02T05:19:00.836Z,56.86
2023-02-02T05:22:03.017Z,56.71
2023-02-02T05:25:06.859Z,55.74
2023-02-02T05:28:09.087Z,55.71
2023-02-02T05:31:11.322Z,56.72
2023-02-02T05:34:13.687Z,57.22
2023-02-02T05:37:15.869Z,57.04
2023-02-02T05:40:18.081Z,55.51
2023-02-02T05:43:21.574Z,54.85
2023-02-02T05:46:23.846Z,54.62
2023-02-02T05:49:26.272Z,53.58
2023-02-02T05:52:34.743Z,53.57
2023-02-02T05:55:36.951Z,53.00
2023-02-02T05:58:39.140Z,53.56
2023-02-02T06:01:41.339Z,52.67
2023-02-02T06:04:43.510Z,53.12
2023-02-02T06:07:45.628Z,53.69
2023-02-02T06:10:47.807Z,53.14
2023-02-02T06:13:52.181Z,53.31
2023-02-02T06:16:54.318Z,52.63
2023-02-02T06:19:56.495Z,54.46
2023-02-02T06:22:58.727Z,54.80
2023-02-02T06:26:01.708Z,53.79
2023-02-02T06:29:04.145Z,52.72
2023-02-02T06:32:06.435Z,53.10
2023-02-02T06:35:09.081Z,53.60
2023-02-02T06:38:11.473Z,54.41
2023-02-02T06:41:16.273Z,53.96
2023-02-02T06:44:21.020Z,55.35
2023-02-02T06:47:24.518Z,55.72
2023-02-02T06:50:27.683Z,55.99
2023-02-02T06:53:37.222Z,54.53
2023-02-02T06:56:42.325Z,55.20
2023-02-02T06:59:44.496Z,54.99
2023-02-02T07:02:47.145Z,54.99
2023-02-02T07:05:49.850Z,54.78
2023-02-02T07:09:02.312Z,55.51
2023-02-02T07:12:19.332Z,54.36
2023-02-02T07:15:34.370Z,54.25
2023-02-02T07:18:39.625Z,53.79
2023-02-02T07:21:41.829Z,52.42
2023-02-02T07:24:44.010Z,51.57
2023-02-02T07:27:47.985Z,50.56
2023-02-02T07:30:50.405Z,49.84
2023-02-02T07:33:53.650Z,51.53
2023-02-02T07:36:55.806Z,52.16
2023-02-02T07:39:58.316Z,52.35
2023-02-02T07:43:02.443Z,53.12
2023-02-02T07:46:08.193Z,53.07
2023-02-02T07:49:16.377Z,53.10
2023-02-02T07:52:19.777Z,53.48
2023-02-02T07:55:22.104Z,52.45
2023-02-02T07:58:24.245Z,50.43
2023-02-02T08:01:28.773Z,51.55
2023-02-02T08:04:33.752Z,49.56
2023-02-02T08:07:37.747Z,48.76
2023-02-02T08:10:48.087Z,47.78
2023-02-02T08:13:55.682Z,49.59
2023-02-02T08:17:00.767Z,48.31
2023-02-02T08:20:03.529Z,50.10
2023-02-02T08:23:08.577Z,49.66
2023-02-02T08:26:13.697Z,49.90
2023-02-02T08:29:17.475Z,48.88
2023-02-02T08:32:20.048Z,48.45
2023-02-02T08:35:22.639Z,48.76
2023-02-02T08:38:25.188Z,49.07
2023-02-02T08:41:28.410Z,47.81
2023-02-02T08:45:57.837Z,48.27
2023-02-02T08:48:09.540Z,47.83
2023-02-02T08:51:15.431Z,48.50
2023-02-02T08:54:17.682Z,48.57
2023-02-02T08:57:22.559Z,49.11
2023-02-02T09:00:24.823Z,50.62
2023-02-02T09:03:27.209Z,50.76
2023-02-02T09:06:32.346Z,51.36
2023-02-02T09:09:37.395Z,49.58
2023-02-02T09:12:40.055Z,47.91
2023-02-02T09:15:42.230Z,47.75
2023-02-02T09:18:47.782Z,47.43
2023-02-02T09:21:50.597Z,48.49
2023-02-02T09:24:52.880Z,48.05
2023-02-02T09:27:55.022Z,48.58
2023-02-02T09:31:01.397Z,48.14
2023-02-02T09:34:08.939Z,48.41
2023-02-02T09:37:12.155Z,45.95
2023-02-02T09:40:19.318Z,46.36
2023-02-02T09:43:30.739Z,47.63
2023-02-02T09:46:38.915Z,47.91
2023-02-02T09:50:24.398Z,44.91
2023-02-02T09:57:55.687Z,46.23
2023-02-02T10:01:23.471Z,44.95
2023-02-02T10:04:37.186Z,45.72
2023-02-02T10:07:44.632Z,44.42
2023-02-02T10:10:50.998Z,44.13
2023-02-02T10:13:58.371Z,43.72
2023-02-02T10:17:31.038Z,44.85
2023-02-02T10:20:43.698Z,44.14
2023-02-02T10:23:48.114Z,44.80
2023-02-02T10:27:21.679Z,44.25
2023-02-02T10:30:47.336Z,44.26
2023-02-02T10:34:02.632Z,44.04
2023-02-02T10:37:27.280Z,44.72
2023-02-02T10:40:38.453Z,45.10
2023-02-02T10:44:09.732Z,44.29
2023-02-02T10:47:34.149Z,43.81
2023-02-02T10:50:37.721Z,44.06
2023-02-02T10:53:40.474Z,44.82
2023-02-02T10:56:52.263Z,44.79
2023-02-02T11:00:29.918Z,45.87
2023-02-02T11:03:32.910Z,44.99
2023-02-02T11:06:52.453Z,43.76
2023-02-02T11:09:57.427Z,44.74
2023-02-02T11:13:02.031Z,43.78
2023-02-02T11:16:20.399Z,44.89
2023-02-02T11:19:29.892Z,46.21
2023-02-02T11:22:38.646Z,45.11
2023-02-02T11:25:42.898Z,44.94
2023-02-02T11:28:48.391Z,43.62
2023-02-02T11:31:50.621Z,42.63
2023-02-02T11:35:01.875Z,43.08
2023-02-02T11:38:14.787Z,44.79
2023-02-02T11:41:19.216Z,43.70
2023-02-02T11:44:29.147Z,44.11
2023-02-02T11:47:34.636Z,43.33
2023-02-02T11:50:36.874Z,44.03
2023-02-02T11:53:48.215Z,43.63
2023-02-02T11:56:52.384Z,43.41
2023-02-02T12:00:19.507Z,43.22
2023-02-02T12:03:39.099Z,43.59
2023-02-02T12:06:41.597Z,44.00
2023-02-02T12:09:44.391Z,44.19
2023-02-02T12:13:07.452Z,44.36
2023-02-02T12:16:55.015Z,44.11
2023-02-02T12:20:31.454Z,43.73
2023-02-02T12:23:55.962Z,44.31
2023-02-02T12:27:02.702Z,44.39
2023-02-02T12:30:15.806Z,44.21
2023-02-02T12:33:33.573Z,44.11
2023-02-02T12:37:04.580Z,44.21
2023-02-02T12:40:31.562Z,44.51
2023-02-02T12:43:40.652Z,44.47
2023-02-02T12:46:57.863Z,44.86
2023-02-02T12:50:51.387Z,44.72
2023-02-02T12:54:34.236Z,45.36
2023-02-02T12:58:02.343Z,45.66
2023-02-02T13:01:25.455Z,45.31
2023-02-02T13:08:06.220Z,45.74
2023-02-02T13:11:30.790Z,45.93
2023-02-02T13:14:37.099Z,45.62
2023-02-02T13:17:42.382Z,45.26
2023-02-02T13:20:49.629Z,45.51
2023-02-02T13:23:55.354Z,45.41
2023-02-02T13:26:59.679Z,45.78
2023-02-02T13:30:05.837Z,44.96
2023-02-02T13:33:19.078Z,45.45
2023-02-02T13:36:29.649Z,46.38
2023-02-02T13:39:36.566Z,45.41
2023-02-02T13:42:48.775Z,45.34
2023-02-02T13:46:38.996Z,45.05
2023-02-02T13:49:52.948Z,47.10
2023-02-02T13:53:01.257Z,46.42
2023-02-02T13:56:06.004Z,46.41
2023-02-02T13:59:29.479Z,45.54
2023-02-02T14:03:00.156Z,45.54
2023-02-02T14:06:17.322Z,45.68
2023-02-02T14:09:19.583Z,45.25
2023-02-02T14:12:29.350Z,45.83
2023-02-02T14:15:40.200Z,45.52
2023-02-02T14:19:07.510Z,45.20
2023-02-02T14:25:59.312Z,45.88
2023-02-02T14:29:47.100Z,45.88
2023-02-02T14:33:30.234Z,47.05
2023-02-02T14:36:39.068Z,46.34
2023-02-02T14:40:16.701Z,46.00
2023-02-02T14:43:47.909Z,46.23
2023-02-02T14:46:50.053Z,46.43
2023-02-02T14:49:56.303Z,45.21
2023-02-02T14:53:23.143Z,47.06
2023-02-02T14:57:02.669Z,47.16
2023-02-02T15:00:05.287Z,47.80
2023-02-02T15:03:46.151Z,46.97
2023-02-02T15:06:50.968Z,46.22
2023-02-02T15:09:56.993Z,46.70
2023-02-02T15:13:05.191Z,45.21
2023-02-02T15:16:15.304Z,45.49
2023-02-02T15:19:25.253Z,45.71
2023-02-02T15:22:32.647Z,45.17
2023-02-02T15:25:44.491Z,44.84
2023-02-02T15:29:07.116Z,45.39
2023-02-02T15:32:15.919Z,46.36
2023-02-02T15:35:22.080Z,45.40
2023-02-02T15:38:33.727Z,45.42
2023-02-02T15:41:43.393Z,45.69
2023-02-02T15:44:45.725Z,46.80
2023-02-02T15:47:47.921Z,46.49
2023-02-02T15:50:54.701Z,45.01
2023-02-02T15:53:56.935Z,45.61
2023-02-02T15:57:03.071Z,46.29
2023-02-02T16:00:27.400Z,46.27
2023-02-02T16:03:48.181Z,46.98
2023-02-02T16:06:50.744Z,46.41
2023-02-02T16:09:53.203Z,46.60
2023-02-02T16:12:56.362Z,46.63
2023-02-02T16:16:00.984Z,47.30
2023-02-02T16:19:03.159Z,47.47
2023-02-02T16:22:09.269Z,47.04
2023-02-02T16:25:16.977Z,47.21
2023-02-02T16:28:21.371Z,47.95
2023-02-02T16:31:24.869Z,47.44
2023-02-02T16:34:40.013Z,47.87
2023-02-02T16:37:42.149Z,47.44
2023-02-02T16:40:44.353Z,47.55
2023-02-02T16:43:46.479Z,47.89
2023-02-02T16:46:49.498Z,48.39
2023-02-02T16:49:53.081Z,48.53
2023-02-02T16:52:59.656Z,48.24
2023-02-02T16:56:03.683Z,47.75
2023-02-02T16:59:13.542Z,48.56
2023-02-02T17:02:29.487Z,48.27
2023-02-02T17:05:46.037Z,48.54
2023-02-02T17:08:48.248Z,48.13
2023-02-02T17:11:59.722Z,48.30
2023-02-02T17:15:23.575Z,48.37
2023-02-02T17:18:26.427Z,48.41
2023-02-02T17:21:28.592Z,48.37
2023-02-02T17:24:31.207Z,48.60
2023-02-02T17:27:34.242Z,48.79
2023-02-02T17:30:36.519Z,49.36
2023-02-02T17:33:39.078Z,48.64
2023-02-02T17:36:41.890Z,49.39
2023-02-02T17:39:44.255Z,49.48
2023-02-02T17:42:49.199Z,50.19
2023-02-02T17:45:51.376Z,50.76
2023-02-02T17:48:53.635Z,50.92
2023-02-02T17:51:55.769Z,49.86
2023-02-02T17:54:57.949Z,49.77
2023-02-02T17:58:00.094Z,49.39
2023-02-02T18:01:02.587Z,49.52
2023-02-02T18:04:05.710Z,49.20
2023-02-02T18:07:09.094Z,50.62
2023-02-02T18:10:12.922Z,51.29
2023-02-02T18:13:16.596Z,51.13
2023-02-02T18:16:19.847Z,52.15
2023-02-02T18:19:22.244Z,51.91
2023-02-02T18:22:24.731Z,51.31
2023-02-02T18:25:27.331Z,51.46
2023-02-02T18:28:29.763Z,51.40
2023-02-02T18:31:32.141Z,52.04
2023-02-02T18:34:35.683Z,50.85
2023-02-02T18:37:38.765Z,50.18
2023-02-02T18:40:43.531Z,50.85
2023-02-02T18:43:45.732Z,50.50
2023-02-02T18:46:47.893Z,51.03
2023-02-02T18:49:50.142Z,50.64
2023-02-02T18:52:52.318Z,50.88
2023-02-02T18:55:54.458Z,50.80
2023-02-02T18:58:57.919Z,50.96
2023-02-02T19:02:00.116Z,50.90
2023-02-02T19:05:21.051Z,51.98
2023-02-02T19:08:23.180Z,51.83
2023-02-02T19:11:28.044Z,51.24
2023-02-02T19:14:33.191Z,51.01
2023-02-02T19:17:35.330Z,50.95
2023-02-02T19:20:37.900Z,50.98
2023-02-02T19:23:41.763Z,51.68
2023-02-02T19:26:49.591Z,51.23
2023-02-02T19:29:55.904Z,51.07
2023-02-02T19:32:58.035Z,51.55
2023-02-02T19:36:00.173Z,51.14
2023-02-02T19:39:11.080Z,51.42
2023-02-02T19:42:13.291Z,51.00
2023-02-02T19:45:24.390Z,51.17
2023-02-02T19:48:28.106Z,51.14
2023-02-02T19:51:46.735Z,51.37
2023-02-02T19:54:49.654Z,51.69
2023-02-02T19:57:53.355Z,51.62
2023-02-02T20:00:56.397Z,51.91
2023-02-02T20:03:59.483Z,51.87
2023-02-02T20:07:09.469Z,51.90
2023-02-02T20:10:21.369Z,52.61
2023-02-02T20:13:46.526Z,52.83
2023-02-02T20:16:53.580Z,53.19
2023-02-02T20:19:56.136Z,52.63
2023-02-02T20:22:58.394Z,52.82
2023-02-02T20:26:03.690Z,53.28
2023-02-02T20:29:37.583Z,53.37
2023-02-02T20:32:41.352Z,53.22
2023-02-02T20:35:44.389Z,53.91
2023-02-02T20:38:46.553Z,53.77
2023-02-02T20:41:48.867Z,53.49
2023-02-02T20:44:51.846Z,54.14
2023-02-02T20:47:54.014Z,53.30
2023-02-02T20:50:56.203Z,53.83
2023-02-02T20:53:58.336Z,53.32
2023-02-02T20:57:02.108Z,53.47
2023-02-02T21:00:10.342Z,53.59
2023-02-02T21:03:13.242Z,54.69
2023-02-02T21:06:15.352Z,53.70
2023-02-02T21:09:17.935Z,54.25
2023-02-02T21:12:24.339Z,53.72
2023-02-02T21:15:26.516Z,53.39
2023-02-02T21:18:28.648Z,53.08
2023-02-02T21:21:30.896Z,53.72
2023-02-02T21:24:33.049Z,53.82
2023-02-02T21:27:35.790Z,54.73
2023-02-02T21:30:38.093Z,55.28
2023-02-02T21:33:43.955Z,55.23
2023-02-02T21:36:47.139Z,55.99
2023-02-02T21:39:51.165Z,55.53
2023-02-02T21:42:53.387Z,55.72
2023-02-02T21:45:57.233Z,56.14
2023-02-02T21:48:59.783Z,56.17
2023-02-02T21:52:11.338Z,55.78
2023-02-02T21:55:35.455Z,55.25
2023-02-02T21:58:40.344Z,55.46
2023-02-02T22:01:42.772Z,55.79
2023-02-02T22:04:44.935Z,54.70
2023-02-02T22:07:48.938Z,54.69
2023-02-02T22:10:51.398Z,54.47
2023-02-02T22:13:53.950Z,54.38
2023-02-02T22:16:57.914Z,55.22
2023-02-02T22:20:01.757Z,55.48
2023-02-02T22:23:04.022Z,55.86
2023-02-02T22:26:19.072Z,56.10
2023-02-02T22:29:24.423Z,56.19
2023-02-02T22:32:26.592Z,56.60
2023-02-02T22:35:28.701Z,56.30
2023-02-02T22:38:30.880Z,56.87
2023-02-02T22:41:32.995Z,57.14
2023-02-02T22:44:35.089Z,56.98
2023-02-02T22:47:37.403Z,56.81
2023-02-02T22:50:39.622Z,56.77
2023-02-02T22:53:41.757Z,57.07
2023-02-02T22:56:43.895Z,56.62
2023-02-02T22:59:45.987Z,56.82
2023-02-02T23:02:48.272Z,56.68
2023-02-02T23:05:50.423Z,57.08
2023-02-02T23:08:52.567Z,55.25
2023-02-02T23:11:54.738Z,54.14
2023-02-02T23:14:56.939Z,54.33
2023-02-02T23:17:59.684Z,54.35
2023-02-02T23:21:01.868Z,53.72
2023-02-02T23:24:04.306Z,53.34
2023-02-02T23:27:06.423Z,53.50
2023-02-02T23:30:09.909Z,54.76
2023-02-02T23:33:12.035Z,55.38
2023-02-02T23:36:14.181Z,55.81
2023-02-02T23:39:16.280Z,55.66
2023-02-02T23:42:18.567Z,54.51
2023-02-02T23:45:20.766Z,53.81
2023-02-02T23:48:22.887Z,53.71
2023-02-02T23:51:25.086Z,53.29
2023-02-02T23:54:27.941Z,54.55
2023-02-02T23:57:30.522Z,54.21
